Time;durP1;ratioP1;P1;durP2;ratioP2;P2;SDS_P1;SDS_P2;PMS_P1;PMS_P2;Temp;Humidity;BMP_temperature;BMP_pressure;BME280_temperature;BME280_humidity;BME280_pressure;Samples;Min_cycle;Max_cycle;Signal;HPM_P1;HPM_P2
2021/09/25 00:00:06;;;;;;;3.43;3.13;;;;;;;;;;5072186;28;20182;-59
2021/09/25 00:02:32;;;;;;;2.80;2.60;;;;;;;;;;5090601;28;20172;-59
2021/09/25 00:04:58;;;;;;;2.73;2.53;;;;;;;;;;5071736;28;20722;-59
2021/09/25 00:07:24;;;;;;;2.70;2.47;;;;;;;;;;5072041;28;20180;-59
2021/09/25 00:09:50;;;;;;;2.40;2.20;;;;;;;;;;5090145;28;20187;-59
2021/09/25 00:12:17;;;;;;;3.27;2.73;;;;;;;;;;5089000;28;20224;-59
2021/09/25 00:14:44;;;;;;;3.13;2.93;;;;;;;;;;5071763;28;20594;-59
2021/09/25 00:17:11;;;;;;;2.80;2.60;;;;;;;;;;5081916;28;20269;-59
2021/09/25 00:19:38;;;;;;;3.90;2.60;;;;;;;;;;5055422;28;20643;-59
2021/09/25 00:22:04;;;;;;;3.00;2.70;;;;;;;;;;5071993;28;20204;-59
2021/09/25 00:24:31;;;;;;;3.43;2.83;;;;;;;;;;5089817;28;20547;-59
2021/09/25 00:26:57;;;;;;;2.80;2.60;;;;;;;;;;5070664;28;20172;-59
2021/09/25 00:29:23;;;;;;;3.23;2.90;;;;;;;;;;5089967;28;20176;-59
2021/09/25 00:31:49;;;;;;;2.70;2.50;;;;;;;;;;5089922;28;20190;-59
2021/09/25 00:34:16;;;;;;;3.63;2.63;;;;;;;;;;5089617;28;20174;-59
2021/09/25 00:36:42;;;;;;;2.70;2.50;;;;;;;;;;5071608;28;20191;-58
2021/09/25 00:39:08;;;;;;;2.80;2.60;;;;;;;;;;5089786;28;20183;-59
2021/09/25 00:41:35;;;;;;;3.20;2.83;;;;;;;;;;5088314;28;20176;-59
2021/09/25 00:44:01;;;;;;;2.60;2.40;;;;;;;;;;5071946;28;20262;-59
2021/09/25 00:46:27;;;;;;;2.67;2.47;;;;;;;;;;5070583;28;20202;-59
2021/09/25 00:48:53;;;;;;;2.90;2.70;;;;;;;;;;5089699;28;20182;-59
2021/09/25 00:51:19;;;;;;;2.83;2.63;;;;;;;;;;5089313;28;20188;-59
2021/09/25 00:53:45;;;;;;;2.87;2.67;;;;;;;;;;5089220;28;20578;-59
2021/09/25 00:56:12;;;;;;;2.57;2.37;;;;;;;;;;5087637;28;20239;-59
2021/09/25 00:58:38;;;;;;;2.90;2.70;;;;;;;;;;5088900;28;20174;-59
2021/09/25 01:01:05;;;;;;;3.60;3.20;;;;;;;;;;5089357;28;20176;-59
2021/09/25 01:03:31;;;;;;;2.73;2.53;;;;;;;;;;5071715;28;20168;-59
2021/09/25 01:05:57;;;;;;;2.80;2.60;;;;;;;;;;5088827;28;20187;-59
2021/09/25 01:08:23;;;;;;;2.73;2.53;;;;;;;;;;5090288;28;20604;-59
2021/09/25 01:10:51;;;;;;;3.17;2.67;;;;;;;;;;5071070;28;20228;-59
2021/09/25 01:13:18;;;;;;;3.10;2.90;;;;;;;;;;5054523;28;20434;-59
2021/09/25 01:15:44;;;;;;;2.80;2.60;;;;;;;;;;5050769;28;20215;-59
2021/09/25 01:18:10;;;;;;;2.60;2.40;;;;;;;;;;5069529;28;20175;-59
2021/09/25 01:20:37;;;;;;;2.53;2.33;;;;;;;;;;5070946;28;20266;-59
2021/09/25 01:23:03;;;;;;;3.00;2.70;;;;;;;;;;5071462;28;20179;-59
2021/09/25 01:25:29;;;;;;;2.47;2.27;;;;;;;;;;5071708;28;20194;-59
2021/09/25 01:27:55;;;;;;;3.17;2.77;;;;;;;;;;5073005;28;20188;-59
2021/09/25 01:30:21;;;;;;;5.60;5.30;;;;;;;;;;5072710;28;20192;-59
2021/09/25 01:32:48;;;;;;;3.07;2.60;;;;;;;;;;5073139;28;20195;-59
2021/09/25 01:35:16;;;;;;;3.10;2.90;;;;;;;;;;5072201;28;20208;-59
2021/09/25 01:37:42;;;;;;;2.70;2.50;;;;;;;;;;5071705;28;20219;-59
2021/09/25 01:40:08;;;;;;;3.00;2.70;;;;;;;;;;5072445;28;20255;-59
2021/09/25 01:42:35;;;;;;;2.63;2.30;;;;;;;;;;5071787;28;20175;-59
2021/09/25 01:45:01;;;;;;;2.80;2.60;;;;;;;;;;5072039;28;20185;-59
2021/09/25 01:47:27;;;;;;;2.60;2.40;;;;;;;;;;5072668;28;20198;-59
2021/09/25 01:49:54;;;;;;;3.87;3.20;;;;;;;;;;5054383;28;20629;-59
2021/09/25 01:52:20;;;;;;;2.83;2.63;;;;;;;;;;5072003;28;20532;-59
2021/09/25 01:54:46;;;;;;;3.40;3.07;;;;;;;;;;5071979;28;20191;-58
2021/09/25 01:57:13;;;;;;;3.23;2.90;;;;;;;;;;5071298;28;20630;-59
2021/09/25 01:59:39;;;;;;;3.23;2.93;;;;;;;;;;5071844;28;20558;-59
2021/09/25 02:02:05;;;;;;;5.40;3.40;;;;;;;;;;5054004;28;20169;-59
2021/09/25 02:04:32;;;;;;;4.03;3.53;;;;;;;;;;5089875;28;20179;-59
2021/09/25 02:06:58;;;;;;;4.07;3.20;;;;;;;;;;5072068;28;20207;-59
2021/09/25 02:09:24;;;;;;;3.40;3.10;;;;;;;;;;5072258;28;20261;-58
2021/09/25 02:11:50;;;;;;;4.07;3.23;;;;;;;;;;5075615;28;20292;-59
2021/09/25 02:14:16;;;;;;;3.73;3.07;;;;;;;;;;5092425;28;20261;-59
2021/09/25 02:16:42;;;;;;;3.10;2.90;;;;;;;;;;5087572;28;20245;-59
2021/09/25 02:19:08;;;;;;;3.77;3.27;;;;;;;;;;5072454;28;20317;-59
2021/09/25 02:21:35;;;;;;;3.77;3.33;;;;;;;;;;5073076;28;20186;-59
2021/09/25 02:24:01;;;;;;;5.03;3.10;;;;;;;;;;5092168;28;20172;-59
2021/09/25 02:26:27;;;;;;;4.73;3.30;;;;;;;;;;5091047;28;20183;-59
2021/09/25 02:28:53;;;;;;;3.53;3.23;;;;;;;;;;5092547;28;20695;-58
2021/09/25 02:31:20;;;;;;;3.83;3.47;;;;;;;;;;5091038;28;20253;-59
2021/09/25 02:33:47;;;;;;;3.77;3.20;;;;;;;;;;5092282;28;20283;-59
2021/09/25 02:36:14;;;;;;;3.53;3.23;;;;;;;;;;5073317;28;20235;-59
2021/09/25 02:38:40;;;;;;;3.80;3.50;;;;;;;;;;5074396;28;20177;-59
2021/09/25 02:41:06;;;;;;;4.00;3.60;;;;;;;;;;5055961;28;20187;-59
2021/09/25 02:43:32;;;;;;;5.17;3.57;;;;;;;;;;5092207;28;20245;-59
2021/09/25 02:45:58;;;;;;;4.27;3.40;;;;;;;;;;5091606;28;20211;-59
2021/09/25 02:48:24;;;;;;;3.90;3.60;;;;;;;;;;5092195;28;20639;-59
2021/09/25 02:50:50;;;;;;;3.97;3.57;;;;;;;;;;5090669;28;20188;-59
2021/09/25 02:53:16;;;;;;;4.17;3.77;;;;;;;;;;5092231;28;20547;-58
2021/09/25 02:55:42;;;;;;;4.53;4.00;;;;;;;;;;5082534;28;20357;-59
2021/09/25 02:58:09;;;;;;;4.10;3.73;;;;;;;;;;5071517;28;21044;-59
2021/09/25 03:00:35;;;;;;;4.03;3.70;;;;;;;;;;5064278;28;20183;-59
2021/09/25 03:03:02;;;;;;;4.73;4.23;;;;;;;;;;5073458;28;20257;-59
2021/09/25 03:05:29;;;;;;;4.47;3.80;;;;;;;;;;5072506;28;20237;-59
2021/09/25 03:07:55;;;;;;;4.70;4.20;;;;;;;;;;5073155;28;20328;-59
2021/09/25 03:10:21;;;;;;;5.33;4.17;;;;;;;;;;5090558;28;20191;-59
2021/09/25 03:12:47;;;;;;;6.20;4.73;;;;;;;;;;5091052;28;20689;-59
2021/09/25 03:15:16;;;;;;;7.53;4.23;;;;;;;;;;5091011;28;20215;-59
2021/09/25 03:17:43;;;;;;;6.33;4.00;;;;;;;;;;5091211;28;20165;-59
2021/09/25 03:20:09;;;;;;;4.90;4.40;;;;;;;;;;5090952;28;20631;-58
2021/09/25 03:22:36;;;;;;;4.80;4.40;;;;;;;;;;5091231;28;20168;-59
2021/09/25 03:25:07;;;;;;;4.30;3.90;;;;;;;;;;5072562;28;20181;-59
2021/09/25 03:27:33;;;;;;;6.87;4.50;;;;;;;;;;5071933;28;20169;-59
2021/09/25 03:29:59;;;;;;;4.57;3.90;;;;;;;;;;5072822;28;20550;-59
2021/09/25 03:32:25;;;;;;;4.63;3.93;;;;;;;;;;5091612;28;20568;-59
2021/09/25 03:34:52;;;;;;;4.93;4.30;;;;;;;;;;5090709;28;20184;-59
2021/09/25 03:37:18;;;;;;;4.70;4.10;;;;;;;;;;5072646;28;20197;-59
2021/09/25 03:39:44;;;;;;;4.50;4.10;;;;;;;;;;5072584;28;20188;-59
2021/09/25 03:42:11;;;;;;;6.37;4.13;;;;;;;;;;5089613;28;20228;-59
2021/09/25 03:44:37;;;;;;;4.70;4.30;;;;;;;;;;5072645;28;20185;-59
2021/09/25 03:47:03;;;;;;;4.20;3.80;;;;;;;;;;5090765;28;20176;-59
2021/09/25 03:49:29;;;;;;;4.40;4.00;;;;;;;;;;5091158;28;20180;-59
2021/09/25 03:51:55;;;;;;;4.90;4.17;;;;;;;;;;5090443;28;20187;-59
2021/09/25 03:54:21;;;;;;;5.20;3.97;;;;;;;;;;5072368;28;20184;-59
2021/09/25 03:56:47;;;;;;;6.00;5.37;;;;;;;;;;5089398;28;20229;-59
2021/09/25 03:59:13;;;;;;;4.67;4.27;;;;;;;;;;5090483;28;20177;-59
2021/09/25 04:01:39;;;;;;;6.37;4.57;;;;;;;;;;5090574;28;20231;-59
2021/09/25 04:04:05;;;;;;;5.03;4.50;;;;;;;;;;5090761;28;20173;-59
2021/09/25 04:06:32;;;;;;;4.53;4.13;;;;;;;;;;5089962;28;20176;-59
2021/09/25 04:08:59;;;;;;;5.20;3.93;;;;;;;;;;5090357;28;20179;-59
2021/09/25 04:11:25;;;;;;;5.93;4.23;;;;;;;;;;5070520;28;20184;-59
2021/09/25 04:13:51;;;;;;;6.03;4.30;;;;;;;;;;5072284;28;20713;-59
2021/09/25 04:16:17;;;;;;;4.90;4.40;;;;;;;;;;5088680;28;20529;-60
2021/09/25 04:18:43;;;;;;;6.40;4.50;;;;;;;;;;5052219;28;20179;-59
2021/09/25 04:21:10;;;;;;;7.93;7.33;;;;;;;;;;5067397;28;20168;-59
2021/09/25 04:23:36;;;;;;;4.40;3.97;;;;;;;;;;5072122;28;20180;-60
2021/09/25 04:26:02;;;;;;;5.60;4.10;;;;;;;;;;5088031;28;20211;-59
2021/09/25 04:28:28;;;;;;;4.63;4.17;;;;;;;;;;5090095;28;20183;-59
2021/09/25 04:30:54;;;;;;;5.13;4.63;;;;;;;;;;5088628;28;20462;-60
2021/09/25 04:33:20;;;;;;;8.77;8.17;;;;;;;;;;5090522;28;21032;-59
2021/09/25 04:35:46;;;;;;;4.40;4.00;;;;;;;;;;5089597;28;20202;-59
2021/09/25 04:38:12;;;;;;;4.67;4.17;;;;;;;;;;5090114;28;20216;-59
2021/09/25 04:40:38;;;;;;;4.83;4.43;;;;;;;;;;5070219;28;20179;-59
2021/09/25 04:43:04;;;;;;;4.47;4.07;;;;;;;;;;5071596;28;20167;-59
2021/09/25 04:45:31;;;;;;;4.70;4.23;;;;;;;;;;5089441;28;20308;-59
2021/09/25 04:47:57;;;;;;;4.67;4.17;;;;;;;;;;5090173;28;20510;-59
2021/09/25 04:50:28;;;;;;;4.50;4.07;;;;;;;;;;5089380;28;20199;-59
2021/09/25 04:52:55;;;;;;;5.00;4.50;;;;;;;;;;5090155;28;20602;-60
2021/09/25 04:55:21;;;;;;;4.17;3.77;;;;;;;;;;5086265;28;20247;-60
2021/09/25 04:57:47;;;;;;;5.27;3.90;;;;;;;;;;5073695;28;20200;-59
2021/09/25 05:00:13;;;;;;;7.17;6.67;;;;;;;;;;5081824;28;20717;-60
2021/09/25 05:02:39;;;;;;;4.67;3.87;;;;;;;;;;5094116;28;20199;-59
2021/09/25 05:05:06;;;;;;;4.43;4.03;;;;;;;;;;5093564;28;20189;-59
2021/09/25 05:07:32;;;;;;;5.33;4.70;;;;;;;;;;5075349;28;20194;-59
2021/09/25 05:09:58;;;;;;;6.07;4.23;;;;;;;;;;5075536;28;20176;-60
2021/09/25 05:12:24;;;;;;;5.90;4.57;;;;;;;;;;5092208;28;20219;-59
2021/09/25 05:14:50;;;;;;;6.07;4.40;;;;;;;;;;5093741;28;20192;-59
2021/09/25 05:17:16;;;;;;;4.80;4.30;;;;;;;;;;5093527;28;20168;-59
2021/09/25 05:19:42;;;;;;;5.77;4.83;;;;;;;;;;5075332;28;20186;-59
2021/09/25 05:22:08;;;;;;;5.17;4.67;;;;;;;;;;5093542;28;20565;-59
2021/09/25 05:24:34;;;;;;;6.07;4.23;;;;;;;;;;5075185;28;20195;-59
2021/09/25 05:27:01;;;;;;;4.70;4.10;;;;;;;;;;5092403;28;20242;-59
2021/09/25 05:29:27;;;;;;;4.90;4.03;;;;;;;;;;5093065;28;20189;-59
2021/09/25 05:31:53;;;;;;;5.77;4.33;;;;;;;;;;5093073;28;20197;-59
2021/09/25 05:34:19;;;;;;;5.60;4.83;;;;;;;;;;5074465;28;20530;-59
2021/09/25 05:36:45;;;;;;;4.63;3.93;;;;;;;;;;5092998;28;20195;-59
2021/09/25 05:39:11;;;;;;;4.90;4.30;;;;;;;;;;5075278;28;20554;-59
2021/09/25 05:41:37;;;;;;;5.80;4.50;;;;;;;;;;5092160;28;20183;-59
2021/09/25 05:44:03;;;;;;;4.70;4.30;;;;;;;;;;5093011;28;20167;-59
2021/09/25 05:46:30;;;;;;;5.13;4.63;;;;;;;;;;5092495;28;20681;-59
2021/09/25 05:48:56;;;;;;;5.77;4.53;;;;;;;;;;5091996;28;20222;-59
2021/09/25 05:51:22;;;;;;;4.73;4.27;;;;;;;;;;5092130;28;20188;-59
2021/09/25 05:53:49;;;;;;;4.33;3.93;;;;;;;;;;5092350;28;20176;-60
2021/09/25 05:56:15;;;;;;;9.57;4.20;;;;;;;;;;5072834;28;20208;-59
2021/09/25 05:58:41;;;;;;;7.17;4.33;;;;;;;;;;5092974;28;20247;-58
2021/09/25 06:01:07;;;;;;;4.30;3.90;;;;;;;;;;5092091;28;20516;-59
2021/09/25 06:03:33;;;;;;;5.37;3.90;;;;;;;;;;5091815;28;20233;-59
2021/09/25 06:05:59;;;;;;;4.10;3.77;;;;;;;;;;5090918;28;20187;-59
2021/09/25 06:08:25;;;;;;;4.97;4.13;;;;;;;;;;5072496;28;20203;-59
2021/09/25 06:10:51;;;;;;;4.97;4.47;;;;;;;;;;5089140;28;20554;-59
2021/09/25 06:13:17;;;;;;;4.23;3.83;;;;;;;;;;5089935;28;20223;-59
2021/09/25 06:15:46;;;;;;;3.93;3.63;;;;;;;;;;5090407;28;20204;-59
2021/09/25 06:18:13;;;;;;;3.80;3.50;;;;;;;;;;5075056;28;20196;-59
2021/09/25 06:20:40;;;;;;;4.10;3.70;;;;;;;;;;5083379;28;20565;-59
2021/09/25 06:23:06;;;;;;;4.63;3.83;;;;;;;;;;5091513;28;20198;-58
2021/09/25 06:25:33;;;;;;;5.07;3.93;;;;;;;;;;5089643;28;20196;-59
2021/09/25 06:27:59;;;;;;;3.97;3.67;;;;;;;;;;5091521;28;20185;-59
2021/09/25 06:30:25;;;;;;;4.33;3.90;;;;;;;;;;5072918;28;20695;-59
2021/09/25 06:32:51;;;;;;;4.97;4.20;;;;;;;;;;5091336;28;20673;-59
2021/09/25 06:35:17;;;;;;;5.63;4.07;;;;;;;;;;5055917;28;20198;-59
2021/09/25 06:37:43;;;;;;;4.83;4.33;;;;;;;;;;5091358;28;20175;-59
2021/09/25 06:40:10;;;;;;;4.67;4.00;;;;;;;;;;5091061;28;20211;-59
2021/09/25 06:42:37;;;;;;;5.23;3.93;;;;;;;;;;5089933;28;20173;-59
2021/09/25 06:45:03;;;;;;;4.80;3.73;;;;;;;;;;5071029;28;20180;-59
2021/09/25 06:47:30;;;;;;;6.50;4.33;;;;;;;;;;5071260;28;20683;-59
2021/09/25 06:49:56;;;;;;;4.90;4.40;;;;;;;;;;5089303;28;20172;-59
2021/09/25 06:52:23;;;;;;;5.10;4.20;;;;;;;;;;5091170;28;20168;-59
2021/09/25 06:54:50;;;;;;;4.93;4.47;;;;;;;;;;5072348;28;20184;-59
2021/09/25 06:57:16;;;;;;;5.10;3.70;;;;;;;;;;5050921;28;20199;-59
2021/09/25 06:59:42;;;;;;;4.67;3.80;;;;;;;;;;5056428;28;20722;-59
2021/09/25 07:02:08;;;;;;;6.13;4.70;;;;;;;;;;5090308;28;20168;-57
2021/09/25 07:04:36;;;;;;;7.97;5.23;;;;;;;;;;5071896;28;20187;-58
2021/09/25 07:07:02;;;;;;;10.40;5.10;;;;;;;;;;5076605;28;20180;-57
2021/09/25 07:09:28;;;;;;;6.23;5.63;;;;;;;;;;5055375;28;20182;-56
2021/09/25 07:11:54;;;;;;;6.93;5.70;;;;;;;;;;5089840;28;20223;-57
2021/09/25 07:14:20;;;;;;;6.37;5.63;;;;;;;;;;5091106;28;20480;-57
2021/09/25 07:16:46;;;;;;;5.60;4.87;;;;;;;;;;5090073;28;20294;-57
2021/09/25 07:19:13;;;;;;;10.07;6.07;;;;;;;;;;5089672;28;20197;-57
2021/09/25 07:21:39;;;;;;;7.33;5.27;;;;;;;;;;5069807;28;20555;-57
2021/09/25 07:24:05;;;;;;;6.00;5.50;;;;;;;;;;5070022;28;20172;-57
2021/09/25 07:26:31;;;;;;;7.97;5.93;;;;;;;;;;5069300;28;20215;-56
2021/09/25 07:28:57;;;;;;;6.47;5.77;;;;;;;;;;5091180;28;20179;-57
2021/09/25 07:31:23;;;;;;;7.93;6.40;;;;;;;;;;5090690;28;20889;-57
2021/09/25 07:33:49;;;;;;;6.30;5.67;;;;;;;;;;5090229;28;20196;-57
2021/09/25 07:36:16;;;;;;;5.97;5.43;;;;;;;;;;5089075;28;20206;-57
2021/09/25 07:38:42;;;;;;;7.97;5.40;;;;;;;;;;5090877;28;20178;-57
2021/09/25 07:41:08;;;;;;;5.80;5.27;;;;;;;;;;5088754;28;20274;-56
2021/09/25 07:43:34;;;;;;;5.73;5.23;;;;;;;;;;5090217;28;20211;-57
2021/09/25 07:46:01;;;;;;;6.67;5.20;;;;;;;;;;5090408;28;20240;-57
2021/09/25 07:48:27;;;;;;;5.60;5.10;;;;;;;;;;5090819;28;20179;-57
2021/09/25 07:50:53;;;;;;;6.27;5.67;;;;;;;;;;5089980;28;20587;-58
2021/09/25 07:53:19;;;;;;;6.90;6.03;;;;;;;;;;5090706;28;20712;-58
2021/09/25 07:55:45;;;;;;;7.93;5.50;;;;;;;;;;5089100;28;20631;-57
2021/09/25 07:58:11;;;;;;;6.70;5.60;;;;;;;;;;5090688;28;20226;-57
2021/09/25 08:00:39;;;;;;;7.07;6.20;;;;;;;;;;5089547;28;20175;-56
2021/09/25 08:03:05;;;;;;;6.07;5.47;;;;;;;;;;5090393;28;20172;-57
2021/09/25 08:05:31;;;;;;;6.40;5.80;;;;;;;;;;5071308;28;20626;-57
2021/09/25 08:07:57;;;;;;;7.03;5.90;;;;;;;;;;5071713;28;20164;-57
2021/09/25 08:10:23;;;;;;;7.13;6.03;;;;;;;;;;5088693;28;20179;-57
2021/09/25 08:12:50;;;;;;;7.47;6.10;;;;;;;;;;5090153;28;20942;-57
2021/09/25 08:15:17;;;;;;;7.37;6.50;;;;;;;;;;5087551;28;20229;-56
2021/09/25 08:17:45;;;;;;;8.40;6.17;;;;;;;;;;5089904;28;20161;-57
2021/09/25 08:20:13;;;;;;;7.23;6.17;;;;;;;;;;5087636;28;20342;-57
2021/09/25 08:22:39;;;;;;;7.10;5.73;;;;;;;;;;5088233;28;20170;-57
2021/09/25 08:25:05;;;;;;;7.63;5.73;;;;;;;;;;5089410;28;20172;-57
2021/09/25 08:27:31;;;;;;;10.77;6.77;;;;;;;;;;5070861;28;20218;-57
2021/09/25 08:29:57;;;;;;;8.80;6.80;;;;;;;;;;5073618;28;20182;-57
2021/09/25 08:32:24;;;;;;;7.27;5.97;;;;;;;;;;5088382;28;20197;-57
2021/09/25 08:34:50;;;;;;;7.10;6.30;;;;;;;;;;5089735;28;20196;-57
2021/09/25 08:37:16;;;;;;;8.63;5.87;;;;;;;;;;5089469;28;20172;-57
2021/09/25 08:39:43;;;;;;;6.70;5.93;;;;;;;;;;5090016;28;20580;-57
2021/09/25 08:42:11;;;;;;;6.90;6.20;;;;;;;;;;5088796;28;20530;-58
2021/09/25 08:44:38;;;;;;;7.60;6.90;;;;;;;;;;5071218;28;20180;-57
2021/09/25 08:47:04;;;;;;;7.57;6.47;;;;;;;;;;5054590;28;20178;-57
2021/09/25 08:49:30;;;;;;;7.13;6.43;;;;;;;;;;5089530;28;20187;-57
2021/09/25 08:51:56;;;;;;;9.27;6.43;;;;;;;;;;5071282;28;20255;-58
2021/09/25 08:54:22;;;;;;;8.00;6.40;;;;;;;;;;5089580;28;20566;-58
2021/09/25 08:56:48;;;;;;;6.23;5.73;;;;;;;;;;5070363;28;20222;-57
2021/09/25 08:59:15;;;;;;;6.93;6.23;;;;;;;;;;5090012;28;20180;-57
2021/09/25 09:01:43;;;;;;;10.20;6.13;;;;;;;;;;5089802;28;20175;-57
2021/09/25 09:04:09;;;;;;;7.07;6.37;;;;;;;;;;5089590;28;20174;-57
2021/09/25 09:06:36;;;;;;;7.27;6.30;;;;;;;;;;5088533;28;20184;-57
2021/09/25 09:09:06;;;;;;;7.37;6.67;;;;;;;;;;5089589;28;20180;-58
2021/09/25 09:11:35;;;;;;;9.13;6.80;;;;;;;;;;5085703;28;20180;-58
2021/09/25 09:14:02;;;;;;;6.70;5.80;;;;;;;;;;5069504;28;20153;-58
2021/09/25 09:16:29;;;;;;;10.60;6.40;;;;;;;;;;5068866;28;20216;-57
2021/09/25 09:18:55;;;;;;;6.70;6.03;;;;;;;;;;5069806;28;20286;-58
2021/09/25 09:21:25;;;;;;;9.47;7.93;;;;;;;;;;5068959;28;20184;-57
2021/09/25 09:23:53;;;;;;;7.70;6.50;;;;;;;;;;5066646;28;20222;-57
2021/09/25 09:26:27;;;;;;;9.30;6.90;;;;;;;;;;5065683;28;20293;-57
2021/09/25 09:28:54;;;;;;;6.33;5.73;;;;;;;;;;5069660;28;20183;-57
2021/09/25 09:31:20;;;;;;;6.47;5.67;;;;;;;;;;5069018;28;20192;-57
2021/09/25 09:33:48;;;;;;;6.83;6.00;;;;;;;;;;5069325;28;20206;-57
2021/09/25 09:36:28;;;;;;;6.73;6.13;;;;;;;;;;5067529;28;20198;-57
2021/09/25 09:38:56;;;;;;;7.33;6.23;;;;;;;;;;5050884;28;20172;-56
2021/09/25 09:41:30;;;;;;;5.63;5.13;;;;;;;;;;5050853;28;20187;-57
2021/09/25 09:43:58;;;;;;;7.33;6.13;;;;;;;;;;5054831;28;20670;-58
2021/09/25 09:46:31;;;;;;;7.90;6.00;;;;;;;;;;5072198;28;20181;-57
2021/09/25 09:48:58;;;;;;;7.83;5.87;;;;;;;;;;5073087;28;20501;-58
2021/09/25 09:51:53;;;;;;;7.27;6.00;;;;;;;;;;5072286;28;20283;-57
2021/09/25 09:54:21;;;;;;;6.10;5.50;;;;;;;;;;5055561;28;20548;-57
2021/09/25 09:56:48;;;;;;;7.03;6.37;;;;;;;;;;5053431;28;20210;-57
2021/09/25 09:59:14;;;;;;;8.50;6.27;;;;;;;;;;5034681;28;20177;-57
2021/09/25 10:01:41;;;;;;;6.67;5.63;;;;;;;;;;5052335;28;20187;-57
2021/09/25 10:04:07;;;;;;;9.17;5.90;;;;;;;;;;5052569;28;20176;-58
2021/09/25 10:06:36;;;;;;;7.83;6.60;;;;;;;;;;5071758;28;20268;-57
2021/09/25 10:09:06;;;;;;;6.77;6.00;;;;;;;;;;5072327;28;20172;-57
2021/09/25 10:11:32;;;;;;;5.63;5.13;;;;;;;;;;5071844;28;20257;-57
2021/09/25 10:14:00;;;;;;;7.17;5.37;;;;;;;;;;5073248;28;20180;-58
2021/09/25 10:16:26;;;;;;;8.63;6.13;;;;;;;;;;5090915;28;20277;-57
2021/09/25 10:18:54;;;;;;;5.70;4.83;;;;;;;;;;5092310;28;20174;-57
2021/09/25 10:21:21;;;;;;;6.10;5.50;;;;;;;;;;5072989;28;20588;-57
2021/09/25 10:23:58;;;;;;;6.63;5.83;;;;;;;;;;5091235;28;20172;-57
2021/09/25 10:26:25;;;;;;;8.03;5.97;;;;;;;;;;5071782;28;20179;-57
2021/09/25 10:28:58;;;;;;;5.87;5.37;;;;;;;;;;5073138;28;20229;-57
2021/09/25 10:31:24;;;;;;;6.60;5.90;;;;;;;;;;5090612;28;20570;-57
2021/09/25 10:34:03;;;;;;;9.00;6.10;;;;;;;;;;5090822;28;20184;-57
2021/09/25 10:36:56;;;;;;;7.70;5.57;;;;;;;;;;5068609;28;20200;-57
2021/09/25 10:39:28;;;;;;;8.13;5.87;;;;;;;;;;5052961;28;20198;-57
2021/09/25 10:42:06;;;;;;;8.20;6.23;;;;;;;;;;5089828;28;20179;-57
2021/09/25 10:44:33;;;;;;;7.57;6.20;;;;;;;;;;5091912;28;21343;-57
2021/09/25 10:47:26;;;;;;;7.00;6.07;;;;;;;;;;5073401;28;20233;-57
2021/09/25 10:49:54;;;;;;;9.03;5.80;;;;;;;;;;5069570;28;20380;-57
2021/09/25 10:52:22;;;;;;;11.80;6.23;;;;;;;;;;5090111;28;20191;-57
2021/09/25 10:55:08;;;;;;;8.67;6.03;;;;;;;;;;5095190;28;20676;-58
2021/09/25 10:57:34;;;;;;;6.77;6.07;;;;;;;;;;5091168;28;20187;-57
2021/09/25 11:00:20;;;;;;;9.47;6.03;;;;;;;;;;5102342;28;20241;-58
2021/09/25 11:02:46;;;;;;;9.37;6.37;;;;;;;;;;5090589;28;20171;-57
2021/09/25 11:05:38;;;;;;;6.60;5.10;;;;;;;;;;5091037;28;20180;-57
2021/09/25 11:08:13;;;;;;;6.83;5.70;;;;;;;;;;5070877;28;20180;-57
2021/09/25 11:10:58;;;;;;;11.63;7.13;;;;;;;;;;5081224;28;20933;-57
2021/09/25 11:13:42;;;;;;;12.77;8.23;;;;;;;;;;5090946;28;20618;-57
2021/09/25 11:16:08;;;;;;;6.13;5.50;;;;;;;;;;5090260;28;20559;-58
2021/09/25 11:18:49;;;;;;;8.80;5.77;;;;;;;;;;5090596;28;20179;-57
2021/09/25 11:21:15;;;;;;;6.83;6.23;;;;;;;;;;5090754;28;20202;-57
2021/09/25 11:23:43;;;;;;;6.67;5.93;;;;;;;;;;5071508;28;20175;-57
2021/09/25 11:26:09;;;;;;;8.83;5.97;;;;;;;;;;5088075;28;20252;-57
2021/09/25 11:28:35;;;;;;;5.93;5.30;;;;;;;;;;5089956;28;20218;-58
2021/09/25 11:31:11;;;;;;;6.73;6.07;;;;;;;;;;5089482;28;20186;-58
2021/09/25 11:33:38;;;;;;;6.43;5.83;;;;;;;;;;5089676;28;20196;-57
2021/09/25 11:36:09;;;;;;;6.13;5.53;;;;;;;;;;5082668;28;20210;-57
2021/09/25 11:38:43;;;;;;;7.67;5.77;;;;;;;;;;5088336;28;20202;-57
2021/09/25 11:41:13;;;;;;;6.47;5.97;;;;;;;;;;5084975;28;20172;-57
2021/09/25 11:43:39;;;;;;;6.97;6.13;;;;;;;;;;5088142;28;20172;-58
2021/09/25 11:46:06;;;;;;;7.67;6.07;;;;;;;;;;5087927;28;20191;-57
2021/09/25 11:48:34;;;;;;;9.77;5.87;;;;;;;;;;5089237;28;20589;-58
2021/09/25 11:51:02;;;;;;;7.17;5.80;;;;;;;;;;5089954;28;20175;-58
2021/09/25 11:53:30;;;;;;;6.20;5.60;;;;;;;;;;5089962;28;20682;-58
2021/09/25 11:56:00;;;;;;;6.43;5.80;;;;;;;;;;5076829;28;20232;-59
2021/09/25 11:58:27;;;;;;;6.70;6.00;;;;;;;;;;5051001;28;20172;-59
2021/09/25 12:00:54;;;;;;;7.30;5.60;;;;;;;;;;5081637;28;20180;-58
2021/09/25 12:03:21;;;;;;;9.27;7.80;;;;;;;;;;5070774;28;20172;-58
2021/09/25 12:05:52;;;;;;;6.77;6.07;;;;;;;;;;5088399;28;20518;-59
2021/09/25 12:08:19;;;;;;;7.27;6.13;;;;;;;;;;5070399;28;20260;-58
2021/09/25 12:10:47;;;;;;;7.30;6.00;;;;;;;;;;5078337;28;20199;-58
2021/09/25 12:13:24;;;;;;;7.87;5.67;;;;;;;;;;5087290;28;20247;-59
2021/09/25 12:15:51;;;;;;;9.40;6.20;;;;;;;;;;5073086;28;20721;-59
2021/09/25 12:18:19;;;;;;;9.00;6.27;;;;;;;;;;5067412;28;20177;-58
2021/09/25 12:20:47;;;;;;;7.57;6.13;;;;;;;;;;5066774;28;20230;-57
2021/09/25 12:23:17;;;;;;;10.33;8.07;;;;;;;;;;5067220;28;20730;-57
2021/09/25 12:25:43;;;;;;;6.97;5.90;;;;;;;;;;5059635;28;20183;-57
2021/09/25 12:28:28;;;;;;;8.43;5.77;;;;;;;;;;5087527;28;20471;-57
2021/09/25 12:30:54;;;;;;;5.80;5.20;;;;;;;;;;5085356;28;20690;-57
2021/09/25 12:33:20;;;;;;;5.70;5.20;;;;;;;;;;5087461;28;20223;-57
2021/09/25 12:36:04;;;;;;;8.50;6.03;;;;;;;;;;5073762;28;20201;-57
2021/09/25 12:38:31;;;;;;;5.53;4.97;;;;;;;;;;5068667;28;20177;-57
2021/09/25 12:40:59;;;;;;;10.53;5.70;;;;;;;;;;5067021;28;20226;-57
2021/09/25 12:43:25;;;;;;;6.40;5.80;;;;;;;;;;5068776;28;20259;-57
2021/09/25 12:46:04;;;;;;;7.97;5.33;;;;;;;;;;5067929;28;20188;-57
2021/09/25 12:48:30;;;;;;;11.47;7.27;;;;;;;;;;5068489;28;20169;-58
2021/09/25 12:50:56;;;;;;;6.17;5.53;;;;;;;;;;5067796;28;20182;-56
2021/09/25 12:53:22;;;;;;;6.20;5.50;;;;;;;;;;5068403;28;20191;-57
2021/09/25 12:55:48;;;;;;;10.57;5.90;;;;;;;;;;5066619;28;20204;-57
2021/09/25 12:58:17;;;;;;;7.83;5.30;;;;;;;;;;5067202;28;20180;-57
2021/09/25 13:00:44;;;;;;;6.43;4.93;;;;;;;;;;5067800;28;20714;-57
2021/09/25 13:03:12;;;;;;;8.70;5.50;;;;;;;;;;5068334;28;20164;-57
2021/09/25 13:05:38;;;;;;;6.90;5.60;;;;;;;;;;5076066;28;20670;-57
2021/09/25 13:08:17;;;;;;;6.33;5.43;;;;;;;;;;5068667;28;20659;-57
2021/09/25 13:10:50;;;;;;;5.60;5.10;;;;;;;;;;5066788;28;20609;-57
2021/09/25 13:13:17;;;;;;;7.57;5.20;;;;;;;;;;5084754;28;20219;-57
2021/09/25 13:15:44;;;;;;;5.97;4.83;;;;;;;;;;5100921;28;20195;-57
2021/09/25 13:18:10;;;;;;;5.30;4.80;;;;;;;;;;5112879;28;20167;-57
2021/09/25 13:20:36;;;;;;;4.93;4.53;;;;;;;;;;5112094;28;20358;-57
2021/09/25 13:23:05;;;;;;;7.47;4.60;;;;;;;;;;5112874;28;20209;-57
2021/09/25 13:25:31;;;;;;;11.43;4.83;;;;;;;;;;5110496;28;20745;-57
2021/09/25 13:27:58;;;;;;;6.27;4.70;;;;;;;;;;5112637;28;20176;-58
2021/09/25 13:30:24;;;;;;;6.00;4.93;;;;;;;;;;5111499;28;20190;-57
2021/09/25 13:32:50;;;;;;;4.73;4.23;;;;;;;;;;5094515;28;20195;-58
2021/09/25 13:35:20;;;;;;;7.13;4.90;;;;;;;;;;5111477;28;20178;-58
2021/09/25 13:37:46;;;;;;;6.07;4.27;;;;;;;;;;5094399;28;20180;-57
2021/09/25 13:40:13;;;;;;;6.45;5.35;;;;;;;;;;5111211;28;20422;-57
2021/09/25 13:42:39;;;;;;;6.40;4.67;;;;;;;;;;5111719;28;20190;-57
2021/09/25 13:45:06;;;;;;;4.90;4.40;;;;;;;;;;5111878;28;20178;-56
2021/09/25 13:47:34;;;;;;;7.63;5.20;;;;;;;;;;5112184;28;20173;-57
2021/09/25 13:50:00;;;;;;;5.87;5.20;;;;;;;;;;5111402;28;20282;-57
2021/09/25 13:52:26;;;;;;;8.97;4.87;;;;;;;;;;5112151;28;20176;-57
2021/09/25 13:54:52;;;;;;;6.87;4.93;;;;;;;;;;5109183;28;20171;-57
2021/09/25 13:57:18;;;;;;;5.80;5.27;;;;;;;;;;5090237;28;20253;-57
2021/09/25 13:59:44;;;;;;;7.80;7.07;;;;;;;;;;5091358;28;20591;-57
2021/09/25 14:02:11;;;;;;;10.03;6.33;;;;;;;;;;5091224;28;20175;-57
2021/09/25 14:04:37;;;;;;;5.20;4.70;;;;;;;;;;5091033;28;20268;-56
2021/09/25 14:07:04;;;;;;;6.43;4.73;;;;;;;;;;5091104;28;20187;-56
2021/09/25 14:09:33;;;;;;;7.20;4.73;;;;;;;;;;5090923;28;20180;-57
2021/09/25 14:12:00;;;;;;;5.43;4.50;;;;;;;;;;5089677;28;20295;-57
2021/09/25 14:14:27;;;;;;;4.93;4.30;;;;;;;;;;5091106;28;20191;-56
2021/09/25 14:16:53;;;;;;;5.60;4.37;;;;;;;;;;5091215;28;20795;-57
2021/09/25 14:19:19;;;;;;;4.83;4.10;;;;;;;;;;5091105;28;20171;-57
2021/09/25 14:21:45;;;;;;;5.53;4.90;;;;;;;;;;5091377;28;20538;-56
2021/09/25 14:24:11;;;;;;;5.60;5.10;;;;;;;;;;5091054;28;20206;-57
2021/09/25 14:26:37;;;;;;;5.45;4.90;;;;;;;;;;5087922;28;20409;-57
2021/09/25 14:29:08;;;;;;;5.23;4.40;;;;;;;;;;5090369;28;20190;-57
2021/09/25 14:31:35;;;;;;;6.63;4.73;;;;;;;;;;5090458;28;20172;-57
2021/09/25 14:34:01;;;;;;;5.77;4.77;;;;;;;;;;5073153;28;20172;-57
2021/09/25 14:36:27;;;;;;;6.53;4.90;;;;;;;;;;5090019;28;20200;-58
2021/09/25 14:38:53;;;;;;;6.17;4.97;;;;;;;;;;5073056;28;20168;-57
2021/09/25 14:41:19;;;;;;;7.77;5.23;;;;;;;;;;5089486;28;20176;-57
2021/09/25 14:43:45;;;;;;;5.13;4.63;;;;;;;;;;5091158;28;20160;-58